createdAt,value
2022-08-19T00:05:13.694Z,39.10
2022-08-19T00:10:33.903Z,39.10
2022-08-19T00:15:54.069Z,39.10
2022-08-19T00:21:14.276Z,39.10
2022-08-19T00:26:34.470Z,39.00
2022-08-19T00:31:54.651Z,39.00
2022-08-19T00:37:14.901Z,39.00
2022-08-19T00:42:35.012Z,39.00
2022-08-19T00:47:55.214Z,39.00
2022-08-19T00:53:15.281Z,39.00
2022-08-19T00:58:35.545Z,39.00
2022-08-19T01:03:57.117Z,39.00
2022-08-19T01:09:18.799Z,39.00
2022-08-19T01:14:38.909Z,39.00
2022-08-19T01:19:59.044Z,39.00
2022-08-19T01:25:19.228Z,39.00
2022-08-19T01:30:39.784Z,39.00
2022-08-19T01:36:04.637Z,39.00
2022-08-19T01:41:24.808Z,39.00
2022-08-19T01:46:44.872Z,39.00
2022-08-19T01:52:04.840Z,39.00
2022-08-19T01:57:25.000Z,39.00
2022-08-19T02:02:45.072Z,39.00
2022-08-19T02:08:05.147Z,39.00
2022-08-19T02:13:26.270Z,39.00
2022-08-19T02:18:46.378Z,39.00
2022-08-19T02:24:06.512Z,39.00
2022-08-19T02:29:26.590Z,39.00
2022-08-19T02:34:46.808Z,39.00
2022-08-19T02:40:12.262Z,38.90
2022-08-19T02:45:32.922Z,39.00
2022-08-19T02:50:53.604Z,38.90
2022-08-19T02:56:13.794Z,38.90
2022-08-19T03:01:33.869Z,39.00
2022-08-19T03:06:54.106Z,39.00
2022-08-19T03:12:14.181Z,38.90
2022-08-19T03:17:34.334Z,38.90
2022-08-19T03:22:54.586Z,38.90
2022-08-19T03:28:14.854Z,38.90
2022-08-19T03:33:34.919Z,38.90
2022-08-19T03:38:56.375Z,38.80
2022-08-19T03:44:19.819Z,39.00
2022-08-19T03:49:39.944Z,38.80
2022-08-19T03:55:00.146Z,38.80
2022-08-19T04:00:20.335Z,38.80
2022-08-19T04:05:40.391Z,38.80
2022-08-19T04:11:00.547Z,38.80
2022-08-19T04:16:20.588Z,38.80
2022-08-19T04:21:40.749Z,38.90
2022-08-19T04:27:00.896Z,38.80
2022-08-19T04:32:21.174Z,38.80
2022-08-19T04:37:41.158Z,38.80
2022-08-19T04:43:01.220Z,38.80
2022-08-19T04:48:27.126Z,38.80
2022-08-19T04:53:47.830Z,38.80
2022-08-19T04:59:08.072Z,38.80
2022-08-19T05:04:28.173Z,38.80
2022-08-19T05:09:58.966Z,38.70
2022-08-19T05:15:19.178Z,38.80
2022-08-19T05:20:39.320Z,38.80
2022-08-19T05:25:59.667Z,38.80
2022-08-19T05:31:19.799Z,38.80
2022-08-19T05:36:40.246Z,38.80
2022-08-19T05:42:00.232Z,38.80
2022-08-19T05:47:20.688Z,38.80
2022-08-19T05:52:45.948Z,38.80
2022-08-19T05:58:10.739Z,38.80
2022-08-19T06:03:30.810Z,38.80
2022-08-19T06:08:50.937Z,38.80
2022-08-19T06:14:16.513Z,38.80
2022-08-19T06:19:40.912Z,38.80
2022-08-19T06:25:01.508Z,38.80
2022-08-19T06:30:21.660Z,38.80
2022-08-19T06:35:41.834Z,38.80
2022-08-19T06:41:02.032Z,38.80
2022-08-19T06:46:27.814Z,38.70
2022-08-19T06:51:49.009Z,38.80
2022-08-19T06:57:09.779Z,38.80
2022-08-19T07:02:30.009Z,38.80
2022-08-19T07:07:50.976Z,38.80
2022-08-19T07:13:11.329Z,38.80
2022-08-19T07:18:31.725Z,38.80
2022-08-19T07:23:51.882Z,38.80
2022-08-19T07:29:11.931Z,38.80
2022-08-19T07:34:33.612Z,38.80
2022-08-19T07:39:53.760Z,38.80
2022-08-19T07:45:13.961Z,38.80
2022-08-19T07:50:35.508Z,38.80
2022-08-19T07:55:55.526Z,38.80
2022-08-19T08:01:15.759Z,38.80
2022-08-19T08:06:36.022Z,38.80
2022-08-19T08:11:56.511Z,38.80
2022-08-19T08:17:16.773Z,38.70
2022-08-19T08:22:51.660Z,38.80
2022-08-19T08:28:17.682Z,38.70
2022-08-19T08:33:37.790Z,38.70
2022-08-19T08:44:23.110Z,38.70
2022-08-19T08:49:43.543Z,38.70
2022-08-19T08:55:03.861Z,38.70
2022-08-19T09:00:30.567Z,38.60
2022-08-19T09:05:50.606Z,38.70
2022-08-19T09:11:11.819Z,38.60
2022-08-19T09:16:33.935Z,38.60
2022-08-19T09:21:54.102Z,38.70
2022-08-19T09:27:18.467Z,38.70
2022-08-19T09:32:38.887Z,38.60
2022-08-19T09:37:59.628Z,38.60
2022-08-19T09:43:33.222Z,38.60
2022-08-19T09:48:54.326Z,38.60
2022-08-19T09:54:14.531Z,38.60
2022-08-19T09:59:39.383Z,38.60
2022-08-19T10:04:59.590Z,38.60
2022-08-19T10:10:20.768Z,38.60
2022-08-19T10:15:47.392Z,38.50
2022-08-19T10:21:08.090Z,38.50
2022-08-19T10:26:29.318Z,38.50
2022-08-19T10:32:00.295Z,38.40
2022-08-19T10:37:23.547Z,38.50
2022-08-19T10:42:48.882Z,38.40
2022-08-19T10:48:09.031Z,38.30
2022-08-19T10:53:35.884Z,38.40
2022-08-19T10:58:56.028Z,38.40
2022-08-19T11:04:16.233Z,38.40
2022-08-19T11:09:36.280Z,38.40
2022-08-19T11:14:56.422Z,38.30
2022-08-19T11:20:16.526Z,38.30
2022-08-19T11:25:36.842Z,38.30
2022-08-19T11:30:56.988Z,38.30
2022-08-19T11:36:17.191Z,38.40
2022-08-19T11:41:37.282Z,38.40
2022-08-19T11:46:57.463Z,38.30
2022-08-19T11:52:17.571Z,38.30
2022-08-19T11:57:37.600Z,38.30
2022-08-19T12:02:57.730Z,38.30
2022-08-19T12:08:17.845Z,38.30
2022-08-19T12:13:37.930Z,38.30
2022-08-19T12:18:58.066Z,38.30
2022-08-19T12:24:18.229Z,38.30
2022-08-19T12:29:38.432Z,38.30
2022-08-19T12:34:58.535Z,38.20
2022-08-19T12:40:18.949Z,38.20
2022-08-19T12:45:39.461Z,38.20
2022-08-19T12:51:01.109Z,38.10
2022-08-19T12:56:23.402Z,38.10
2022-08-19T13:01:43.323Z,39.60
2022-08-19T13:07:03.500Z,39.80
2022-08-19T13:12:24.901Z,39.30
2022-08-19T13:17:45.125Z,39.30
2022-08-19T13:23:05.268Z,39.30
2022-08-19T13:28:29.280Z,39.10
2022-08-19T13:33:49.455Z,38.90
2022-08-19T13:39:09.621Z,38.50
2022-08-19T13:44:29.953Z,38.20
2022-08-19T13:49:50.472Z,38.20
2022-08-19T13:55:10.503Z,38.30
2022-08-19T14:00:30.594Z,38.30
2022-08-19T14:05:50.728Z,38.30
2022-08-19T14:11:11.011Z,38.20
2022-08-19T14:16:31.306Z,38.20
2022-08-19T14:21:51.330Z,38.20
2022-08-19T14:27:11.452Z,38.10
2022-08-19T14:32:31.730Z,38.10
2022-08-19T14:37:51.828Z,38.20
2022-08-19T14:43:11.956Z,38.20
2022-08-19T14:48:32.088Z,38.20
2022-08-19T14:53:52.230Z,38.10
2022-08-19T14:59:12.326Z,38.10
2022-08-19T15:04:33.820Z,38.20
2022-08-19T15:09:54.118Z,38.20
2022-08-19T15:15:14.354Z,38.20
2022-08-19T15:20:34.626Z,38.10
2022-08-19T15:25:54.844Z,38.20
2022-08-19T15:31:17.203Z,38.20
2022-08-19T15:36:48.479Z,38.20
2022-08-19T15:42:08.686Z,38.20
2022-08-19T15:47:28.823Z,38.20
2022-08-19T15:52:55.045Z,38.20
2022-08-19T15:58:28.040Z,38.20
2022-08-19T16:03:49.470Z,38.10
2022-08-19T16:09:09.683Z,38.10
2022-08-19T16:14:29.827Z,38.10
2022-08-19T16:19:52.711Z,38.10
2022-08-19T16:25:13.101Z,38.10
2022-08-19T16:30:33.337Z,38.00
2022-08-19T16:36:00.422Z,38.00
2022-08-19T16:41:27.560Z,38.00
2022-08-19T16:46:57.393Z,38.00
2022-08-19T16:52:18.897Z,38.00
2022-08-19T16:57:39.064Z,38.00
2022-08-19T17:02:59.210Z,38.00
2022-08-19T17:08:19.466Z,38.00
2022-08-19T17:13:39.536Z,38.00
2022-08-19T17:18:59.759Z,38.10
2022-08-19T17:24:20.166Z,38.00
2022-08-19T17:29:43.873Z,38.00
2022-08-19T17:35:06.336Z,38.10
2022-08-19T17:40:26.464Z,38.00
2022-08-19T17:45:50.140Z,38.00
2022-08-19T17:51:10.345Z,38.00
2022-08-19T17:56:30.622Z,38.00
2022-08-19T18:01:53.630Z,38.00
2022-08-19T18:07:14.567Z,38.00
2022-08-19T18:12:34.810Z,37.90
2022-08-19T18:17:55.164Z,38.00
2022-08-19T18:23:44.130Z,38.00
2022-08-19T18:28:55.967Z,38.00
2022-08-19T18:34:16.134Z,38.00
2022-08-19T18:39:36.414Z,38.00
2022-08-19T18:45:00.054Z,38.00
2022-08-19T18:50:20.271Z,38.00
2022-08-19T18:55:40.480Z,38.00
2022-08-19T19:01:00.731Z,38.00
2022-08-19T19:06:20.959Z,38.00
2022-08-19T19:11:41.098Z,38.30
2022-08-19T19:17:01.192Z,38.10
2022-08-19T19:22:21.369Z,38.10
2022-08-19T19:27:41.373Z,38.20
2022-08-19T19:33:01.590Z,38.30
2022-08-19T19:38:21.684Z,38.40
2022-08-19T19:43:41.840Z,38.70
2022-08-19T19:49:01.972Z,39.00
2022-08-19T19:54:23.639Z,39.10
2022-08-19T19:59:44.861Z,39.30
2022-08-19T20:05:11.564Z,39.40
2022-08-19T20:10:31.886Z,39.60
2022-08-19T20:15:52.031Z,39.70
2022-08-19T20:21:12.261Z,39.70
2022-08-19T20:26:34.044Z,39.60
2022-08-19T20:31:57.958Z,39.80
2022-08-19T20:37:19.900Z,39.90
2022-08-19T20:42:40.016Z,39.80
2022-08-19T20:48:00.236Z,39.90
2022-08-19T20:53:20.337Z,40.00
2022-08-19T20:58:40.692Z,40.00
2022-08-19T21:04:01.079Z,40.00
2022-08-19T21:09:21.515Z,40.10
2022-08-19T21:14:41.600Z,40.20
2022-08-19T21:20:01.770Z,40.30
2022-08-19T21:25:21.822Z,40.30
2022-08-19T21:30:42.169Z,40.40
2022-08-19T21:36:04.963Z,40.40
2022-08-19T21:41:26.558Z,40.40
2022-08-19T21:46:50.493Z,40.50
2022-08-19T21:52:10.697Z,40.60
2022-08-19T21:57:30.921Z,40.50
2022-08-19T22:02:51.020Z,40.70
2022-08-19T22:08:11.275Z,40.70
2022-08-19T22:13:31.487Z,40.80
2022-08-19T22:18:51.599Z,41.00
2022-08-19T22:24:11.780Z,41.00
2022-08-19T22:29:33.678Z,41.00
2022-08-19T22:34:54.097Z,41.10
2022-08-19T22:40:14.411Z,41.10
2022-08-19T22:45:34.460Z,41.20
2022-08-19T22:50:54.794Z,41.10
2022-08-19T22:56:15.583Z,41.20
2022-08-19T23:01:36.169Z,41.10
2022-08-19T23:06:56.296Z,41.10
2022-08-19T23:12:16.484Z,41.20
2022-08-19T23:23:10.421Z,41.20
2022-08-19T23:28:30.288Z,41.20
2022-08-19T23:33:51.533Z,41.40
2022-08-19T23:39:11.864Z,41.40
2022-08-19T23:44:31.889Z,41.00
2022-08-19T23:49:53.789Z,41.00
2022-08-19T23:55:15.932Z,41.30
